sensor_id;sensor_type;location;lat;lon;timestamp;noise_LAeq;noise_LA_min;noise_LA_max;noise_LA01;noise_LA95
69616;Laerm;56822;52.516;4.708;2024-03-23T00:51:29;39.67;37.76;42.11;;
69616;Laerm;56822;52.516;4.708;2024-03-23T00:52:11;39.64;37.79;41.20;;
69616;Laerm;56822;52.516;4.708;2024-03-23T00:52:22;39.50;37.58;41.67;;
69616;Laerm;56822;52.516;4.708;2024-03-23T00:53:38;39.68;37.86;42.35;;
69616;Laerm;56822;52.516;4.708;2024-03-23T00:53:48;39.54;37.83;42.08;;
69616;Laerm;56822;52.516;4.708;2024-03-23T00:53:59;39.67;37.74;42.34;;
69616;Laerm;56822;52.516;4.708;2024-03-23T00:54:09;39.35;37.68;41.81;;
69616;Laerm;56822;52.516;4.708;2024-03-23T00:54:19;39.46;37.58;41.62;;
69616;Laerm;56822;52.516;4.708;2024-03-23T00:54:29;39.42;37.81;41.18;;
69616;Laerm;56822;52.516;4.708;2024-03-23T00:54:40;39.45;37.86;41.38;;
69616;Laerm;56822;52.516;4.708;2024-03-23T00:54:50;39.31;37.69;41.39;;
69616;Laerm;56822;52.516;4.708;2024-03-23T00:55:00;39.27;37.74;41.42;;
69616;Laerm;56822;52.516;4.708;2024-03-23T00:55:10;39.39;37.95;41.03;;
69616;Laerm;56822;52.516;4.708;2024-03-23T00:55:21;39.24;37.56;41.49;;
69616;Laerm;56822;52.516;4.708;2024-03-23T00:55:31;39.18;37.43;40.67;;
69616;Laerm;56822;52.516;4.708;2024-03-23T00:55:42;39.31;37.68;41.11;;
69616;Laerm;56822;52.516;4.708;2024-03-23T00:55:52;39.19;37.57;41.45;;
69616;Laerm;56822;52.516;4.708;2024-03-23T00:56:02;39.13;37.45;41.09;;
69616;Laerm;56822;52.516;4.708;2024-03-23T00:56:14;39.39;37.89;41.91;;
69616;Laerm;56822;52.516;4.708;2024-03-23T00:56:24;39.39;37.75;41.42;;
69616;Laerm;56822;52.516;4.708;2024-03-23T00:56:34;39.18;37.45;40.85;;
69616;Laerm;56822;52.516;4.708;2024-03-23T00:56:44;39.21;37.57;40.95;;
69616;Laerm;56822;52.516;4.708;2024-03-23T00:56:55;39.15;37.51;41.41;;
69616;Laerm;56822;52.516;4.708;2024-03-23T00:57:05;39.34;37.48;41.24;;
69616;Laerm;56822;52.516;4.708;2024-03-23T00:57:15;39.35;37.86;41.19;;
69616;Laerm;56822;52.516;4.708;2024-03-23T00:57:26;39.49;37.88;41.15;;
69616;Laerm;56822;52.516;4.708;2024-03-23T00:57:36;39.26;37.49;41.70;;
69616;Laerm;56822;52.516;4.708;2024-03-23T00:57:46;39.32;37.35;41.19;;
69616;Laerm;56822;52.516;4.708;2024-03-23T00:57:56;39.05;37.46;41.27;;
69616;Laerm;56822;52.516;4.708;2024-03-23T00:58:07;39.05;37.31;40.80;;
69616;Laerm;56822;52.516;4.708;2024-03-23T00:58:17;39.19;37.44;41.34;;
69616;Laerm;56822;52.516;4.708;2024-03-23T00:58:28;39.31;37.78;41.78;;
69616;Laerm;56822;52.516;4.708;2024-03-23T00:58:38;39.38;37.47;41.66;;
69616;Laerm;56822;52.516;4.708;2024-03-23T00:58:48;39.43;37.89;41.34;;
69616;Laerm;56822;52.516;4.708;2024-03-23T00:58:58;39.47;37.89;41.77;;
69616;Laerm;56822;52.516;4.708;2024-03-23T00:59:09;39.29;37.87;42.14;;
69616;Laerm;56822;52.516;4.708;2024-03-23T00:59:19;39.22;37.75;41.29;;
69616;Laerm;56822;52.516;4.708;2024-03-23T00:59:31;39.22;37.88;40.94;;
69616;Laerm;56822;52.516;4.708;2024-03-23T00:59:41;39.06;37.53;41.01;;
69616;Laerm;56822;52.516;4.708;2024-03-23T00:59:51;39.25;37.79;41.12;;
69616;Laerm;56822;52.516;4.708;2024-03-23T01:00:02;39.40;38.05;41.66;;
69616;Laerm;56822;52.516;4.708;2024-03-23T01:00:13;39.58;37.94;41.36;;
69616;Laerm;56822;52.516;4.708;2024-03-23T01:00:23;39.55;37.83;41.32;;
69616;Laerm;56822;52.516;4.708;2024-03-23T01:00:33;39.40;37.92;41.32;;
69616;Laerm;56822;52.516;4.708;2024-03-23T01:00:44;39.09;37.49;41.15;;
69616;Laerm;56822;52.516;4.708;2024-03-23T01:00:54;39.28;37.52;41.60;;
69616;Laerm;56822;52.516;4.708;2024-03-23T01:01:04;39.30;37.37;41.91;;
69616;Laerm;56822;52.516;4.708;2024-03-23T01:01:15;39.39;37.58;41.32;;
69616;Laerm;56822;52.516;4.708;2024-03-23T01:01:25;39.25;37.56;41.08;;
69616;Laerm;56822;52.516;4.708;2024-03-23T01:01:35;39.20;37.53;41.98;;
69616;Laerm;56822;52.516;4.708;2024-03-23T01:01:46;39.11;36.80;41.56;;
69616;Laerm;56822;52.516;4.708;2024-03-23T01:01:56;38.93;37.07;40.62;;
69616;Laerm;56822;52.516;4.708;2024-03-23T01:02:06;39.15;37.47;40.98;;
69616;Laerm;56822;52.516;4.708;2024-03-23T01:02:17;39.10;37.54;41.10;;
69616;Laerm;56822;52.516;4.708;2024-03-23T01:02:27;39.21;37.60;41.41;;
69616;Laerm;56822;52.516;4.708;2024-03-23T01:02:37;39.02;36.98;40.93;;
69616;Laerm;56822;52.516;4.708;2024-03-23T01:02:47;39.17;37.47;41.32;;
69616;Laerm;56822;52.516;4.708;2024-03-23T01:02:58;39.35;37.48;41.39;;
69616;Laerm;56822;52.516;4.708;2024-03-23T01:03:08;39.09;37.11;41.31;;
69616;Laerm;56822;52.516;4.708;2024-03-23T01:03:18;39.24;37.36;41.20;;
69616;Laerm;56822;52.516;4.708;2024-03-23T01:03:29;39.42;37.69;41.08;;
69616;Laerm;56822;52.516;4.708;2024-03-23T01:03:39;39.11;37.61;41.92;;
69616;Laerm;56822;52.516;4.708;2024-03-23T01:03:49;39.29;37.54;41.41;;
69616;Laerm;56822;52.516;4.708;2024-03-23T01:04:00;39.13;37.35;40.85;;
69616;Laerm;56822;52.516;4.708;2024-03-23T01:04:10;38.95;37.31;41.09;;
69616;Laerm;56822;52.516;4.708;2024-03-23T01:04:20;39.09;37.06;40.74;;
69616;Laerm;56822;52.516;4.708;2024-03-23T01:04:31;39.13;37.52;40.98;;
69616;Laerm;56822;52.516;4.708;2024-03-23T01:04:41;39.26;37.54;41.18;;
69616;Laerm;56822;52.516;4.708;2024-03-23T01:04:51;39.12;37.65;42.03;;
69616;Laerm;56822;52.516;4.708;2024-03-23T01:05:01;39.18;37.81;41.34;;
69616;Laerm;56822;52.516;4.708;2024-03-23T01:05:12;39.04;37.43;40.83;;
69616;Laerm;56822;52.516;4.708;2024-03-23T01:05:22;39.08;37.48;41.35;;
69616;Laerm;56822;52.516;4.708;2024-03-23T01:05:32;39.05;37.60;40.49;;
69616;Laerm;56822;52.516;4.708;2024-03-23T01:05:43;38.93;37.04;40.48;;
69616;Laerm;56822;52.516;4.708;2024-03-23T01:05:53;38.92;37.34;40.48;;
69616;Laerm;56822;52.516;4.708;2024-03-23T01:06:04;39.11;37.59;41.07;;
69616;Laerm;56822;52.516;4.708;2024-03-23T01:06:14;39.28;37.45;41.87;;
69616;Laerm;56822;52.516;4.708;2024-03-23T01:06:24;39.18;37.12;41.70;;
69616;Laerm;56822;52.516;4.708;2024-03-23T01:06:35;39.00;36.95;41.39;;
69616;Laerm;56822;52.516;4.708;2024-03-23T01:06:45;38.85;37.03;40.79;;
69616;Laerm;56822;52.516;4.708;2024-03-23T01:06:55;38.82;37.12;40.75;;
69616;Laerm;56822;52.516;4.708;2024-03-23T01:07:05;38.86;37.12;40.69;;
69616;Laerm;56822;52.516;4.708;2024-03-23T01:07:16;38.74;37.42;40.22;;
69616;Laerm;56822;52.516;4.708;2024-03-23T01:07:26;38.89;37.31;40.58;;
69616;Laerm;56822;52.516;4.708;2024-03-23T01:07:36;38.69;37.13;40.43;;
69616;Laerm;56822;52.516;4.708;2024-03-23T01:07:47;42.07;37.22;58.12;;
69616;Laerm;56822;52.516;4.708;2024-03-23T01:07:57;43.42;37.36;58.01;;
69616;Laerm;56822;52.516;4.708;2024-03-23T01:08:07;39.11;37.39;49.12;;
69616;Laerm;56822;52.516;4.708;2024-03-23T01:08:17;38.98;37.35;40.89;;
69616;Laerm;56822;52.516;4.708;2024-03-23T01:08:28;38.98;37.18;40.64;;
69616;Laerm;56822;52.516;4.708;2024-03-23T01:08:38;38.73;37.01;40.48;;
69616;Laerm;56822;52.516;4.708;2024-03-23T01:08:48;38.93;37.63;42.08;;
69616;Laerm;56822;52.516;4.708;2024-03-23T01:08:58;38.95;37.59;40.94;;
69616;Laerm;56822;52.516;4.708;2024-03-23T01:09:09;38.94;37.33;41.28;;
69616;Laerm;56822;52.516;4.708;2024-03-23T01:09:21;38.80;37.31;40.71;;
69616;Laerm;56822;52.516;4.708;2024-03-23T01:09:32;38.59;37.13;40.31;;
69616;Laerm;56822;52.516;4.708;2024-03-23T01:09:43;38.68;37.26;40.88;;
69616;Laerm;56822;52.516;4.708;2024-03-23T01:09:53;38.76;37.15;40.65;;
69616;Laerm;56822;52.516;4.708;2024-03-23T01:10:04;38.84;37.25;40.41;;
69616;Laerm;56822;52.516;4.708;2024-03-23T01:10:14;38.72;36.99;40.61;;
69616;Laerm;56822;52.516;4.708;2024-03-23T01:10:25;38.85;37.54;41.03;;
69616;Laerm;56822;52.516;4.708;2024-03-23T01:10:35;38.62;37.05;40.47;;
69616;Laerm;56822;52.516;4.708;2024-03-23T01:10:58;38.74;37.39;40.30;;
69616;Laerm;56822;52.516;4.708;2024-03-23T01:11:09;38.69;36.89;41.63;;
69616;Laerm;56822;52.516;4.708;2024-03-23T01:11:19;38.66;37.12;40.93;;
69616;Laerm;56822;52.516;4.708;2024-03-23T01:11:30;38.87;37.49;41.49;;
69616;Laerm;56822;52.516;4.708;2024-03-23T01:11:40;38.76;37.32;40.85;;
69616;Laerm;56822;52.516;4.708;2024-03-23T01:11:50;38.76;37.49;40.65;;
69616;Laerm;56822;52.516;4.708;2024-03-23T01:12:00;38.85;37.31;41.24;;
69616;Laerm;56822;52.516;4.708;2024-03-23T01:12:11;38.88;37.22;41.94;;
69616;Laerm;56822;52.516;4.708;2024-03-23T01:12:22;38.84;37.06;41.81;;
69616;Laerm;56822;52.516;4.708;2024-03-23T01:12:32;38.73;37.13;40.25;;
69616;Laerm;56822;52.516;4.708;2024-03-23T01:12:42;38.66;37.19;40.73;;
69616;Laerm;56822;52.516;4.708;2024-03-23T01:12:52;38.50;37.12;40.68;;
69616;Laerm;56822;52.516;4.708;2024-03-23T01:13:03;38.45;37.07;40.25;;
69616;Laerm;56822;52.516;4.708;2024-03-23T01:13:13;38.54;36.98;40.21;;
69616;Laerm;56822;52.516;4.708;2024-03-23T01:13:23;38.72;37.26;43.31;;
69616;Laerm;56822;52.516;4.708;2024-03-23T01:13:34;38.44;36.78;40.20;;
69616;Laerm;56822;52.516;4.708;2024-03-23T01:13:44;38.52;36.84;40.30;;
69616;Laerm;56822;52.516;4.708;2024-03-23T01:13:54;38.63;37.06;40.52;;
69616;Laerm;56822;52.516;4.708;2024-03-23T01:14:06;38.53;36.81;40.08;;
69616;Laerm;56822;52.516;4.708;2024-03-23T01:14:16;38.42;37.03;39.94;;
69616;Laerm;56822;52.516;4.708;2024-03-23T01:14:26;38.56;36.66;40.55;;
69616;Laerm;56822;52.516;4.708;2024-03-23T01:14:37;38.63;37.04;40.25;;
69616;Laerm;56822;52.516;4.708;2024-03-23T01:14:48;38.65;37.15;40.69;;
69616;Laerm;56822;52.516;4.708;2024-03-23T01:14:58;38.65;36.94;40.66;;
69616;Laerm;56822;52.516;4.708;2024-03-23T01:15:08;38.63;36.55;40.61;;
69616;Laerm;56822;52.516;4.708;2024-03-23T01:15:19;38.65;37.16;40.66;;
69616;Laerm;56822;52.516;4.708;2024-03-23T01:15:29;38.60;37.28;40.36;;
69616;Laerm;56822;52.516;4.708;2024-03-23T01:15:39;38.48;37.02;40.17;;
69616;Laerm;56822;52.516;4.708;2024-03-23T01:15:50;38.74;37.20;40.99;;
69616;Laerm;56822;52.516;4.708;2024-03-23T01:16:01;38.68;37.34;40.31;;
69616;Laerm;56822;52.516;4.708;2024-03-23T01:16:11;38.63;37.12;40.41;;
69616;Laerm;56822;52.516;4.708;2024-03-23T01:16:22;38.59;37.10;41.53;;
69616;Laerm;56822;52.516;4.708;2024-03-23T01:16:32;38.69;37.22;41.21;;
69616;Laerm;56822;52.516;4.708;2024-03-23T01:16:42;38.49;37.05;40.94;;
69616;Laerm;56822;52.516;4.708;2024-03-23T01:16:53;38.55;36.85;40.78;;
69616;Laerm;56822;52.516;4.708;2024-03-23T01:17:03;38.62;37.24;40.83;;
69616;Laerm;56822;52.516;4.708;2024-03-23T01:17:13;38.50;36.86;41.17;;
69616;Laerm;56822;52.516;4.708;2024-03-23T01:17:23;38.65;37.19;40.77;;
69616;Laerm;56822;52.516;4.708;2024-03-23T01:17:34;38.63;36.84;40.64;;
69616;Laerm;56822;52.516;4.708;2024-03-23T01:17:44;38.73;36.71;40.84;;
69616;Laerm;56822;52.516;4.708;2024-03-23T01:17:54;38.62;36.81;40.65;;
69616;Laerm;56822;52.516;4.708;2024-03-23T01:18:04;38.72;37.03;41.02;;
69616;Laerm;56822;52.516;4.708;2024-03-23T01:18:15;38.68;37.12;40.67;;
69616;Laerm;56822;52.516;4.708;2024-03-23T01:18:25;38.60;37.33;40.53;;
69616;Laerm;56822;52.516;4.708;2024-03-23T01:18:36;38.80;37.13;41.01;;
69616;Laerm;56822;52.516;4.708;2024-03-23T01:18:46;38.75;37.11;40.63;;
69616;Laerm;56822;52.516;4.708;2024-03-23T01:18:57;38.81;37.16;40.74;;
69616;Laerm;56822;52.516;4.708;2024-03-23T01:19:07;38.76;37.16;40.71;;
69616;Laerm;56822;52.516;4.708;2024-03-23T01:19:17;38.76;37.24;41.33;;
69616;Laerm;56822;52.516;4.708;2024-03-23T01:19:28;38.70;37.12;40.79;;
69616;Laerm;56822;52.516;4.708;2024-03-23T01:19:38;38.58;37.01;40.59;;
69616;Laerm;56822;52.516;4.708;2024-03-23T01:19:49;38.67;37.11;40.60;;
69616;Laerm;56822;52.516;4.708;2024-03-23T01:19:59;38.41;36.91;40.00;;
69616;Laerm;56822;52.516;4.708;2024-03-23T01:20:10;38.48;37.05;39.90;;
69616;Laerm;56822;52.516;4.708;2024-03-23T01:20:20;38.58;37.23;41.12;;
69616;Laerm;56822;52.516;4.708;2024-03-23T01:20:30;38.49;36.89;40.12;;
69616;Laerm;56822;52.516;4.708;2024-03-23T01:20:41;38.66;37.07;40.15;;
69616;Laerm;56822;52.516;4.708;2024-03-23T01:20:51;38.52;37.02;40.13;;
69616;Laerm;56822;52.516;4.708;2024-03-23T01:21:01;38.50;36.96;40.27;;
69616;Laerm;56822;52.516;4.708;2024-03-23T01:21:12;38.60;37.17;40.76;;
69616;Laerm;56822;52.516;4.708;2024-03-23T01:21:22;38.47;37.18;39.90;;
69616;Laerm;56822;52.516;4.708;2024-03-23T01:21:32;38.52;37.28;40.40;;
69616;Laerm;56822;52.516;4.708;2024-03-23T01:21:42;38.54;37.20;40.62;;
69616;Laerm;56822;52.516;4.708;2024-03-23T01:21:53;38.85;37.41;41.51;;
69616;Laerm;56822;52.516;4.708;2024-03-23T01:22:03;38.75;37.30;40.85;;
69616;Laerm;56822;52.516;4.708;2024-03-23T01:22:14;39.26;37.81;41.28;;
69616;Laerm;56822;52.516;4.708;2024-03-23T01:22:24;39.16;37.69;40.82;;
69616;Laerm;56822;52.516;4.708;2024-03-23T01:22:34;38.86;37.35;41.03;;
69616;Laerm;56822;52.516;4.708;2024-03-23T01:22:44;38.80;36.68;40.48;;
69616;Laerm;56822;52.516;4.708;2024-03-23T01:22:55;38.60;36.93;40.51;;
69616;Laerm;56822;52.516;4.708;2024-03-23T01:23:05;38.51;36.81;40.23;;
69616;Laerm;56822;52.516;4.708;2024-03-23T01:23:15;38.42;37.16;40.56;;
69616;Laerm;56822;52.516;4.708;2024-03-23T01:23:26;38.50;37.15;40.38;;
69616;Laerm;56822;52.516;4.708;2024-03-23T01:23:36;38.48;36.59;40.75;;
69616;Laerm;56822;52.516;4.708;2024-03-23T01:23:46;38.42;37.06;40.18;;
69616;Laerm;56822;52.516;4.708;2024-03-23T01:23:56;38.59;37.27;41.18;;
69616;Laerm;56822;52.516;4.708;2024-03-23T01:24:07;38.80;36.87;41.25;;
69616;Laerm;56822;52.516;4.708;2024-03-23T01:24:20;38.87;37.11;42.05;;
69616;Laerm;56822;52.516;4.708;2024-03-23T01:24:30;38.80;37.41;40.89;;
69616;Laerm;56822;52.516;4.708;2024-03-23T01:24:41;38.70;36.94;40.66;;
69616;Laerm;56822;52.516;4.708;2024-03-23T01:24:51;38.76;37.21;40.74;;
69616;Laerm;56822;52.516;4.708;2024-03-23T01:25:01;38.87;37.32;40.90;;
69616;Laerm;56822;52.516;4.708;2024-03-23T01:25:11;39.05;37.50;41.17;;
69616;Laerm;56822;52.516;4.708;2024-03-23T01:25:22;39.43;37.62;42.59;;
69616;Laerm;56822;52.516;4.708;2024-03-23T01:25:32;39.38;37.67;41.36;;
69616;Laerm;56822;52.516;4.708;2024-03-23T01:25:42;41.99;38.74;48.31;;
69616;Laerm;56822;52.516;4.708;2024-03-23T01:25:53;46.15;40.74;54.99;;
69616;Laerm;56822;52.516;4.708;2024-03-23T01:26:03;45.76;39.79;51.51;;
69616;Laerm;56822;52.516;4.708;2024-03-23T01:26:14;44.59;38.70;53.05;;
69616;Laerm;56822;52.516;4.708;2024-03-23T01:26:24;39.04;37.22;42.23;;
69616;Laerm;56822;52.516;4.708;2024-03-23T01:26:35;38.52;37.35;40.14;;
69616;Laerm;56822;52.516;4.708;2024-03-23T01:26:45;38.46;37.18;39.80;;
69616;Laerm;56822;52.516;4.708;2024-03-23T01:26:55;38.77;37.21;40.90;;
69616;Laerm;56822;52.516;4.708;2024-03-23T01:27:05;38.89;37.07;40.55;;
69616;Laerm;56822;52.516;4.708;2024-03-23T01:27:16;38.73;36.91;40.87;;
69616;Laerm;56822;52.516;4.708;2024-03-23T01:27:26;38.65;37.04;40.37;;
69616;Laerm;56822;52.516;4.708;2024-03-23T01:27:36;38.60;37.24;40.48;;
69616;Laerm;56822;52.516;4.708;2024-03-23T01:27:47;38.71;37.36;40.53;;
69616;Laerm;56822;52.516;4.708;2024-03-23T01:27:57;38.65;36.39;41.06;;
69616;Laerm;56822;52.516;4.708;2024-03-23T01:28:07;38.64;37.09;40.84;;
69616;Laerm;56822;52.516;4.708;2024-03-23T01:28:17;38.50;37.00;40.85;;
69616;Laerm;56822;52.516;4.708;2024-03-23T01:28:28;38.48;37.16;40.19;;
69616;Laerm;56822;52.516;4.708;2024-03-23T01:28:38;38.48;37.14;40.43;;
69616;Laerm;56822;52.516;4.708;2024-03-23T01:28:48;38.74;37.28;40.67;;
69616;Laerm;56822;52.516;4.708;2024-03-23T01:28:59;38.60;37.18;40.54;;
69616;Laerm;56822;52.516;4.708;2024-03-23T01:29:09;38.59;36.87;40.65;;
69616;Laerm;56822;52.516;4.708;2024-03-23T01:29:19;38.57;37.20;39.94;;
69616;Laerm;56822;52.516;4.708;2024-03-23T01:29:29;38.50;36.99;39.95;;
69616;Laerm;56822;52.516;4.708;2024-03-23T01:29:40;38.67;37.17;40.22;;
69616;Laerm;56822;52.516;4.708;2024-03-23T01:29:50;38.54;37.18;40.20;;
69616;Laerm;56822;52.516;4.708;2024-03-23T01:30:02;38.60;37.12;40.09;;
69616;Laerm;56822;52.516;4.708;2024-03-23T01:30:12;38.91;37.24;40.44;;
69616;Laerm;56822;52.516;4.708;2024-03-23T01:30:24;38.71;37.00;40.57;;
69616;Laerm;56822;52.516;4.708;2024-03-23T01:30:34;38.69;37.24;40.70;;
69616;Laerm;56822;52.516;4.708;2024-03-23T01:30:44;38.53;37.12;40.13;;
69616;Laerm;56822;52.516;4.708;2024-03-23T01:30:55;38.36;36.97;40.34;;
69616;Laerm;56822;52.516;4.708;2024-03-23T01:31:05;38.45;36.73;40.33;;
69616;Laerm;56822;52.516;4.708;2024-03-23T01:31:15;38.51;36.77;41.24;;
69616;Laerm;56822;52.516;4.708;2024-03-23T01:31:26;38.41;37.05;40.67;;
69616;Laerm;56822;52.516;4.708;2024-03-23T01:31:36;38.54;36.97;41.17;;
69616;Laerm;56822;52.516;4.708;2024-03-23T01:31:46;38.54;37.00;40.84;;
69616;Laerm;56822;52.516;4.708;2024-03-23T01:31:57;38.83;37.38;41.03;;
69616;Laerm;56822;52.516;4.708;2024-03-23T01:32:07;38.53;36.79;40.30;;
69616;Laerm;56822;52.516;4.708;2024-03-23T01:32:17;38.58;37.06;40.87;;
69616;Laerm;56822;52.516;4.708;2024-03-23T01:32:28;38.77;37.17;41.78;;
69616;Laerm;56822;52.516;4.708;2024-03-23T01:32:38;39.91;37.43;43.49;;
69616;Laerm;56822;52.516;4.708;2024-03-23T01:32:49;41.24;38.51;47.47;;
69616;Laerm;56822;52.516;4.708;2024-03-23T01:32:59;40.23;37.48;44.41;;
69616;Laerm;56822;52.516;4.708;2024-03-23T01:33:10;39.16;37.45;41.26;;
69616;Laerm;56822;52.516;4.708;2024-03-23T01:33:20;39.22;37.50;41.17;;
69616;Laerm;56822;52.516;4.708;2024-03-23T01:33:31;38.99;37.42;40.97;;
69616;Laerm;56822;52.516;4.708;2024-03-23T01:33:41;38.54;37.07;41.25;;
69616;Laerm;56822;52.516;4.708;2024-03-23T01:33:51;38.56;37.01;41.11;;
69616;Laerm;56822;52.516;4.708;2024-03-23T01:34:02;38.48;36.48;40.74;;
69616;Laerm;56822;52.516;4.708;2024-03-23T01:34:13;38.41;36.80;40.25;;
69616;Laerm;56822;52.516;4.708;2024-03-23T01:34:23;38.45;36.64;40.89;;
69616;Laerm;56822;52.516;4.708;2024-03-23T01:34:35;38.32;36.98;40.39;;
69616;Laerm;56822;52.516;4.708;2024-03-23T01:34:45;38.49;36.97;39.97;;
69616;Laerm;56822;52.516;4.708;2024-03-23T01:34:55;38.36;36.74;40.08;;
69616;Laerm;56822;52.516;4.708;2024-03-23T01:35:05;38.45;36.89;41.14;;
69616;Laerm;56822;52.516;4.708;2024-03-23T01:35:16;38.52;36.89;40.23;;
69616;Laerm;56822;52.516;4.708;2024-03-23T01:35:26;38.38;36.93;40.40;;
69616;Laerm;56822;52.516;4.708;2024-03-23T01:35:37;38.36;37.00;40.48;;
69616;Laerm;56822;52.516;4.708;2024-03-23T01:35:47;38.50;36.50;40.42;;
69616;Laerm;56822;52.516;4.708;2024-03-23T01:35:58;38.60;37.04;40.00;;
69616;Laerm;56822;52.516;4.708;2024-03-23T01:36:08;38.68;37.03;40.59;;
69616;Laerm;56822;52.516;4.708;2024-03-23T01:36:18;38.63;37.10;40.73;;
69616;Laerm;56822;52.516;4.708;2024-03-23T01:36:29;38.59;37.38;41.10;;
69616;Laerm;56822;52.516;4.708;2024-03-23T01:36:40;38.53;36.96;40.14;;
69616;Laerm;56822;52.516;4.708;2024-03-23T01:36:50;38.44;37.10;40.48;;
69616;Laerm;56822;52.516;4.708;2024-03-23T01:37:01;38.19;36.85;40.15;;
69616;Laerm;56822;52.516;4.708;2024-03-23T01:37:11;38.34;37.17;40.74;;
69616;Laerm;56822;52.516;4.708;2024-03-23T01:37:21;38.32;37.07;40.26;;
69616;Laerm;56822;52.516;4.708;2024-03-23T01:37:31;38.33;37.08;39.88;;
69616;Laerm;56822;52.516;4.708;2024-03-23T01:37:42;38.40;36.87;40.48;;
69616;Laerm;56822;52.516;4.708;2024-03-23T01:37:52;38.39;37.08;40.19;;
69616;Laerm;56822;52.516;4.708;2024-03-23T01:38:02;38.38;37.07;40.42;;
69616;Laerm;56822;52.516;4.708;2024-03-23T01:38:12;38.61;37.01;40.51;;
69616;Laerm;56822;52.516;4.708;2024-03-23T01:38:23;38.68;37.13;40.02;;
69616;Laerm;56822;52.516;4.708;2024-03-23T01:38:33;38.50;36.96;39.97;;
69616;Laerm;56822;52.516;4.708;2024-03-23T01:38:43;38.62;36.87;40.50;;
69616;Laerm;56822;52.516;4.708;2024-03-23T01:38:53;38.55;37.07;40.38;;
69616;Laerm;56822;52.516;4.708;2024-03-23T01:39:04;38.50;36.91;40.52;;
69616;Laerm;56822;52.516;4.708;2024-03-23T01:39:14;38.52;37.12;40.11;;
69616;Laerm;56822;52.516;4.708;2024-03-23T01:39:24;38.44;36.69;40.73;;
69616;Laerm;56822;52.516;4.708;2024-03-23T01:39:34;38.38;36.91;40.47;;
69616;Laerm;56822;52.516;4.708;2024-03-23T01:39:45;38.57;37.00;40.86;;
69616;Laerm;56822;52.516;4.708;2024-03-23T01:39:55;38.51;37.17;40.24;;
69616;Laerm;56822;52.516;4.708;2024-03-23T01:40:05;38.61;37.05;40.66;;
69616;Laerm;56822;52.516;4.708;2024-03-23T01:40:16;38.87;37.36;40.76;;
69616;Laerm;56822;52.516;4.708;2024-03-23T01:40:27;38.65;37.08;40.74;;
69616;Laerm;56822;52.516;4.708;2024-03-23T01:40:41;38.46;36.82;40.31;;
69616;Laerm;56822;52.516;4.708;2024-03-23T01:40:56;38.55;37.01;40.62;;
69616;Laerm;56822;52.516;4.708;2024-03-23T01:41:07;38.36;37.01;40.42;;
69616;Laerm;56822;52.516;4.708;2024-03-23T01:41:17;38.35;36.99;40.84;;
69616;Laerm;56822;52.516;4.708;2024-03-23T01:41:27;38.17;36.46;39.80;;
69616;Laerm;56822;52.516;4.708;2024-03-23T01:41:38;38.25;36.64;41.30;;
69616;Laerm;56822;52.516;4.708;2024-03-23T01:41:52;38.18;36.73;40.23;;
69616;Laerm;56822;52.516;4.708;2024-03-23T01:42:02;38.22;36.91;39.90;;
69616;Laerm;56822;52.516;4.708;2024-03-23T01:42:13;38.26;36.91;40.63;;
69616;Laerm;56822;52.516;4.708;2024-03-23T01:42:23;38.19;36.85;40.17;;
69616;Laerm;56822;52.516;4.708;2024-03-23T01:42:33;38.19;36.53;40.30;;
69616;Laerm;56822;52.516;4.708;2024-03-23T01:42:54;38.31;36.85;40.27;;
69616;Laerm;56822;52.516;4.708;2024-03-23T01:43:05;38.22;36.55;40.37;;
69616;Laerm;56822;52.516;4.708;2024-03-23T01:43:17;38.29;36.92;39.92;;
69616;Laerm;56822;52.516;4.708;2024-03-23T01:43:28;38.00;36.70;39.60;;
69616;Laerm;56822;52.516;4.708;2024-03-23T01:43:38;38.07;36.74;39.87;;
69616;Laerm;56822;52.516;4.708;2024-03-23T01:43:48;38.26;36.85;39.83;;
69616;Laerm;56822;52.516;4.708;2024-03-23T01:43:58;38.11;36.61;39.87;;
69616;Laerm;56822;52.516;4.708;2024-03-23T01:44:14;38.18;36.56;40.22;;
69616;Laerm;56822;52.516;4.708;2024-03-23T01:44:25;38.33;37.04;40.90;;
69616;Laerm;56822;52.516;4.708;2024-03-23T01:44:35;38.21;36.67;40.12;;
69616;Laerm;56822;52.516;4.708;2024-03-23T01:44:46;38.24;36.76;40.40;;
69616;Laerm;56822;52.516;4.708;2024-03-23T01:44:56;37.98;36.53;39.28;;
69616;Laerm;56822;52.516;4.708;2024-03-23T01:45:07;38.01;36.20;39.33;;
69616;Laerm;56822;52.516;4.708;2024-03-23T01:45:17;37.96;36.10;39.76;;
69616;Laerm;56822;52.516;4.708;2024-03-23T01:45:28;38.01;36.75;39.50;;
69616;Laerm;56822;52.516;4.708;2024-03-23T01:45:38;37.91;36.59;39.67;;
69616;Laerm;56822;52.516;4.708;2024-03-23T01:45:49;38.07;36.68;39.66;;
69616;Laerm;56822;52.516;4.708;2024-03-23T01:46:00;38.05;36.85;39.64;;
69616;Laerm;56822;52.516;4.708;2024-03-23T01:46:10;38.10;36.65;40.08;;
69616;Laerm;56822;52.516;4.708;2024-03-23T01:46:21;38.17;37.00;40.08;;
69616;Laerm;56822;52.516;4.708;2024-03-23T01:46:31;38.15;36.64;39.92;;
69616;Laerm;56822;52.516;4.708;2024-03-23T01:46:42;38.09;36.80;39.80;;
69616;Laerm;56822;52.516;4.708;2024-03-23T01:46:52;38.28;36.71;40.62;;
69616;Laerm;56822;52.516;4.708;2024-03-23T01:47:03;38.34;37.07;40.14;;
69616;Laerm;56822;52.516;4.708;2024-03-23T01:47:13;38.54;36.85;40.15;;
69616;Laerm;56822;52.516;4.708;2024-03-23T01:47:23;38.18;36.92;40.16;;
69616;Laerm;56822;52.516;4.708;2024-03-23T01:47:34;38.07;36.14;39.83;;
69616;Laerm;56822;52.516;4.708;2024-03-23T01:47:44;38.19;36.80;39.38;;
69616;Laerm;56822;52.516;4.708;2024-03-23T01:47:54;38.35;37.17;40.14;;
69616;Laerm;56822;52.516;4.708;2024-03-23T01:48:04;38.18;36.69;40.02;;
69616;Laerm;56822;52.516;4.708;2024-03-23T01:48:15;38.08;36.92;39.73;;
69616;Laerm;56822;52.516;4.708;2024-03-23T01:48:25;38.18;36.56;39.82;;
69616;Laerm;56822;52.516;4.708;2024-03-23T01:48:35;37.96;36.72;40.09;;
69616;Laerm;56822;52.516;4.708;2024-03-23T01:48:46;38.18;36.70;40.35;;
69616;Laerm;56822;52.516;4.708;2024-03-23T01:48:56;38.32;36.66;40.03;;
69616;Laerm;56822;52.516;4.708;2024-03-23T01:49:06;38.33;36.55;40.24;;
69616;Laerm;56822;52.516;4.708;2024-03-23T01:49:17;38.15;36.80;41.05;;
69616;Laerm;56822;52.516;4.708;2024-03-23T01:49:27;37.99;36.65;39.93;;
69616;Laerm;56822;52.516;4.708;2024-03-23T01:49:38;38.30;36.95;39.81;;
69616;Laerm;56822;52.516;4.708;2024-03-23T01:49:48;38.03;36.34;39.56;;
69616;Laerm;56822;52.516;4.708;2024-03-23T01:49:58;37.95;36.47;39.51;;
69616;Laerm;56822;52.516;4.708;2024-03-23T01:50:09;38.17;36.55;39.79;;
69616;Laerm;56822;52.516;4.708;2024-03-23T01:50:20;37.97;36.47;39.67;;
69616;Laerm;56822;52.516;4.708;2024-03-23T01:50:31;37.98;36.55;40.01;;
69616;Laerm;56822;52.516;4.708;2024-03-23T01:50:44;37.85;36.65;39.13;;
69616;Laerm;56822;52.516;4.708;2024-03-23T01:50:55;37.82;36.52;39.39;;
69616;Laerm;56822;52.516;4.708;2024-03-23T01:51:05;37.95;36.45;39.78;;
69616;Laerm;56822;52.516;4.708;2024-03-23T01:51:15;37.87;36.38;39.41;;
69616;Laerm;56822;52.516;4.708;2024-03-23T01:51:26;37.73;36.46;39.38;;
69616;Laerm;56822;52.516;4.708;2024-03-23T01:51:37;37.71;36.42;39.92;;
69616;Laerm;56822;52.516;4.708;2024-03-23T01:51:47;37.65;36.33;39.18;;
69616;Laerm;56822;52.516;4.708;2024-03-23T01:51:57;38.03;36.83;39.60;;